Time;durP1;ratioP1;P1;durP2;ratioP2;P2;SDS_P1;SDS_P2;PMS_P1;PMS_P2;Temp;Humidity;BMP_temperature;BMP_pressure;BME280_temperature;BME280_humidity;BME280_pressure;Samples;Min_cycle;Max_cycle;Signal;HPM_P1;HPM_P2
2021/05/05 00:00:37;;;;;;;10.90;5.32;;;13.50;98.20;;;;;;4878272;29;20029;-79
2021/05/05 00:03:04;;;;;;;6.80;5.50;;;13.60;98.40;;;;;;4878144;29;20136;-79
2021/05/05 00:05:30;;;;;;;10.98;4.95;;;13.50;98.40;;;;;;4878166;29;20175;-80
2021/05/05 00:07:56;;;;;;;7.20;5.28;;;13.50;98.50;;;;;;4878203;29;20032;-80
2021/05/05 00:10:22;;;;;;;7.80;5.05;;;13.60;98.60;;;;;;4877836;29;20044;-80
2021/05/05 00:12:48;;;;;;;10.15;5.75;;;13.60;98.80;;;;;;4877876;29;20085;-79
2021/05/05 00:15:18;;;;;;;6.47;4.90;;;13.50;98.80;;;;;;4877991;29;20100;-79
2021/05/05 00:17:45;;;;;;;12.27;5.90;;;13.50;98.90;;;;;;4878270;29;20489;-73
2021/05/05 00:20:11;;;;;;;10.90;5.72;;;13.40;99.00;;;;;;4878047;29;20032;-80
2021/05/05 00:22:37;;;;;;;9.50;5.05;;;13.40;99.10;;;;;;4878414;29;20021;-74
2021/05/05 00:25:05;;;;;;;14.10;5.85;;;13.40;99.40;;;;;;4879124;29;20563;-74
2021/05/05 00:27:31;;;;;;;7.75;5.45;;;13.40;99.40;;;;;;4878922;29;20401;-74
2021/05/05 00:29:58;;;;;;;11.30;5.95;;;13.30;99.60;;;;;;4878895;29;20017;-74
2021/05/05 00:32:24;;;;;;;7.50;5.32;;;13.30;99.70;;;;;;4879254;29;20029;-74
2021/05/05 00:34:50;;;;;;;8.90;5.40;;;13.30;99.70;;;;;;4880857;29;20025;-74
2021/05/05 00:37:15;;;;;;;9.90;6.40;;;13.20;99.90;;;;;;4881638;29;20137;-74
2021/05/05 00:39:41;;;;;;;9.45;5.43;;;13.10;99.90;;;;;;4881630;29;20077;-73
2021/05/05 00:42:07;;;;;;;10.23;5.97;;;13.10;99.90;;;;;;4864671;29;20033;-74
2021/05/05 00:44:33;;;;;;;8.07;5.85;;;13.10;99.90;;;;;;4881519;29;20033;-74
2021/05/05 00:47:00;;;;;;;10.43;5.32;;;13.10;99.90;;;;;;4881532;29;20040;-73
2021/05/05 00:49:26;;;;;;;8.25;6.05;;;13.10;99.90;;;;;;4866644;29;20549;-74
2021/05/05 00:51:51;;;;;;;7.68;5.93;;;13.10;99.90;;;;;;4862651;29;20162;-74
2021/05/05 00:54:17;;;;;;;10.02;5.60;;;13.00;99.90;;;;;;4862973;29;20108;-74
2021/05/05 00:56:44;;;;;;;7.10;5.80;;;13.00;99.90;;;;;;4863153;29;20033;-74
2021/05/05 00:59:11;;;;;;;17.30;6.40;;;13.00;99.90;;;;;;4881109;29;20709;-73
2021/05/05 01:01:39;;;;;;;14.82;6.28;;;13.00;99.90;;;;;;4881226;29;20025;-74
2021/05/05 01:04:04;;;;;;;5.97;5.32;;;13.00;99.90;;;;;;4881290;29;20036;-74
2021/05/05 01:06:30;;;;;;;10.02;6.15;;;13.00;99.90;;;;;;4881060;29;20029;-74
2021/05/05 01:08:56;;;;;;;7.30;5.80;;;13.00;99.90;;;;;;4880982;29;20029;-74
2021/05/05 01:11:22;;;;;;;8.98;5.88;;;12.90;99.90;;;;;;4881032;29;20041;-74
2021/05/05 01:13:47;;;;;;;8.82;5.82;;;12.90;99.90;;;;;;4880851;29;20025;-74
2021/05/05 01:16:15;;;;;;;13.55;6.43;;;12.80;99.90;;;;;;4880836;29;20029;-74
2021/05/05 01:18:41;;;;;;;9.95;7.10;;;12.80;99.90;;;;;;4881027;29;20112;-73
2021/05/05 01:21:06;;;;;;;6.78;5.93;;;12.80;99.90;;;;;;4880903;29;20537;-74
2021/05/05 01:23:32;;;;;;;7.35;5.63;;;12.70;99.90;;;;;;4880881;29;20035;-74
2021/05/05 01:25:58;;;;;;;13.35;7.32;;;12.70;99.90;;;;;;4880739;29;20068;-74
2021/05/05 01:28:24;;;;;;;10.20;6.55;;;12.70;99.90;;;;;;4880695;29;20032;-74
2021/05/05 01:30:50;;;;;;;12.40;6.57;;;12.70;99.90;;;;;;4880622;29;20410;-74
2021/05/05 01:33:17;;;;;;;9.63;6.60;;;12.70;99.90;;;;;;4880998;29;20029;-74
2021/05/05 01:35:45;;;;;;;6.60;5.75;;;12.70;99.90;;;;;;4880558;29;20029;-74
2021/05/05 01:38:11;;;;;;;8.25;6.85;;;12.60;99.90;;;;;;4880457;29;20053;-74
2021/05/05 01:40:39;;;;;;;9.75;6.45;;;12.60;99.90;;;;;;4880525;29;20033;-74
2021/05/05 01:43:05;;;;;;;11.68;6.60;;;12.60;99.90;;;;;;4880672;29;20053;-74
2021/05/05 01:45:32;;;;;;;10.90;7.18;;;12.60;99.90;;;;;;4879825;29;20033;-74
2021/05/05 01:47:59;;;;;;;9.23;6.65;;;12.60;99.90;;;;;;4880117;29;20169;-74
2021/05/05 01:50:25;;;;;;;9.25;6.57;;;12.60;99.90;;;;;;4880356;29;20029;-74
2021/05/05 01:52:51;;;;;;;8.98;7.45;;;12.60;99.90;;;;;;4880351;29;20017;-74
2021/05/05 01:55:17;;;;;;;9.63;6.68;;;12.60;99.90;;;;;;4880108;29;20029;-74
2021/05/05 01:57:43;;;;;;;10.57;6.88;;;12.60;99.90;;;;;;4872029;29;20359;-74
2021/05/05 02:00:12;;;;;;;14.38;7.78;;;12.60;99.90;;;;;;4861670;29;20021;-74
2021/05/05 02:02:38;;;;;;;8.35;7.20;;;12.60;99.90;;;;;;4862145;29;20508;-74
2021/05/05 02:05:05;;;;;;;14.35;6.45;;;12.60;99.90;;;;;;4862007;29;20077;-74
2021/05/05 02:07:31;;;;;;;9.48;6.28;;;12.50;99.90;;;;;;4862005;29;20394;-74
2021/05/05 02:09:57;;;;;;;9.70;6.88;;;12.50;99.90;;;;;;4862189;29;20025;-74
2021/05/05 02:12:23;;;;;;;12.68;7.30;;;12.50;99.90;;;;;;4862077;29;20028;-74
2021/05/05 02:14:49;;;;;;;16.08;7.45;;;12.50;99.90;;;;;;4862169;29;20058;-74
2021/05/05 02:17:16;;;;;;;11.90;6.97;;;12.40;99.90;;;;;;4862268;29;20069;-74
2021/05/05 02:19:43;;;;;;;10.82;7.50;;;12.40;99.90;;;;;;4862347;29;20489;-74
2021/05/05 02:22:08;;;;;;;11.45;7.22;;;12.40;99.90;;;;;;4860610;29;20093;-74
2021/05/05 02:24:34;;;;;;;10.13;6.97;;;12.40;99.90;;;;;;4861616;29;20507;-74
2021/05/05 02:27:00;;;;;;;18.02;7.50;;;12.40;99.90;;;;;;4864132;29;20025;-74
2021/05/05 02:29:26;;;;;;;15.20;8.00;;;12.30;99.90;;;;;;4880135;29;20029;-74
2021/05/05 02:31:52;;;;;;;10.90;7.68;;;12.30;99.90;;;;;;4880221;29;20108;-74
2021/05/05 02:34:18;;;;;;;13.13;7.53;;;12.20;99.90;;;;;;4879875;29;20036;-74
2021/05/05 02:36:44;;;;;;;11.98;8.05;;;12.30;99.90;;;;;;4879791;29;20025;-74
2021/05/05 02:39:11;;;;;;;17.25;7.90;;;12.20;99.90;;;;;;4879663;29;20099;-74
2021/05/05 02:41:39;;;;;;;12.55;7.45;;;12.20;99.90;;;;;;4879596;29;20033;-74
2021/05/05 02:44:05;;;;;;;12.85;8.00;;;12.30;99.90;;;;;;4879645;29;20025;-74
2021/05/05 02:46:31;;;;;;;12.27;7.78;;;12.20;99.90;;;;;;4879667;29;20033;-74
2021/05/05 02:48:56;;;;;;;13.35;8.05;;;12.30;99.90;;;;;;4879389;29;20040;-74
2021/05/05 02:51:22;;;;;;;12.73;7.82;;;12.30;99.90;;;;;;4879400;29;20537;-74
2021/05/05 02:53:48;;;;;;;11.68;8.07;;;12.30;99.90;;;;;;4879498;29;20085;-74
2021/05/05 02:56:14;;;;;;;8.95;7.50;;;12.30;99.90;;;;;;4864271;29;20105;-74
2021/05/05 02:58:39;;;;;;;11.25;7.72;;;12.30;99.90;;;;;;4876274;29;20033;-74
2021/05/05 03:01:05;;;;;;;12.23;7.90;;;12.20;99.90;;;;;;4879230;29;20104;-74
2021/05/05 03:03:30;;;;;;;10.32;7.30;;;12.20;99.90;;;;;;4879134;29;20516;-74
2021/05/05 03:06:15;;;;;;;11.10;7.07;;;12.20;99.90;;;;;;4878934;29;20026;-74
2021/05/05 03:08:41;;;;;;;13.88;7.60;;;12.30;99.90;;;;;;4879153;29;20055;-74
2021/05/05 03:11:06;;;;;;;10.52;7.43;;;12.30;99.90;;;;;;4879045;29;20553;-74
2021/05/05 03:13:32;;;;;;;12.57;8.30;;;12.30;99.90;;;;;;4878977;29;20021;-74
2021/05/05 03:15:58;;;;;;;11.02;7.13;;;12.40;99.90;;;;;;4879055;29;20057;-74
2021/05/05 03:18:24;;;;;;;12.10;7.30;;;12.40;99.90;;;;;;4878720;29;20045;-74
2021/05/05 03:20:50;;;;;;;12.50;7.82;;;12.40;99.90;;;;;;4878842;29;20037;-74
2021/05/05 03:23:16;;;;;;;11.82;7.57;;;12.40;99.90;;;;;;4878946;29;20065;-74
2021/05/05 03:25:42;;;;;;;10.35;7.50;;;12.40;99.90;;;;;;4878647;29;20036;-74
2021/05/05 03:28:08;;;;;;;11.25;8.18;;;12.30;99.90;;;;;;4878672;29;20036;-74
2021/05/05 03:30:35;;;;;;;11.55;7.50;;;12.30;99.90;;;;;;4878818;29;20577;-74
2021/05/05 03:33:00;;;;;;;13.40;8.55;;;12.30;99.90;;;;;;4878522;29;20045;-74
2021/05/05 03:35:26;;;;;;;10.65;7.13;;;12.30;99.90;;;;;;4878587;29;20068;-74
2021/05/05 03:37:52;;;;;;;12.63;7.35;;;12.30;99.90;;;;;;4878683;29;20049;-74
2021/05/05 03:40:18;;;;;;;11.57;7.78;;;12.30;99.90;;;;;;4878443;29;20029;-74
2021/05/05 03:42:44;;;;;;;14.52;7.32;;;12.30;99.90;;;;;;4878430;29;20073;-74
2021/05/05 03:45:10;;;;;;;10.50;7.93;;;12.30;99.90;;;;;;4878456;29;20104;-74
2021/05/05 03:47:39;;;;;;;12.13;7.70;;;12.30;99.90;;;;;;4878354;29;20032;-74
2021/05/05 03:50:08;;;;;;;12.10;7.85;;;12.30;99.90;;;;;;4878174;29;20025;-74
2021/05/05 03:52:33;;;;;;;12.95;7.80;;;12.30;99.90;;;;;;4878448;29;20025;-74
2021/05/05 03:54:59;;;;;;;12.48;7.97;;;12.30;99.90;;;;;;4878294;29;20444;-74
2021/05/05 03:57:25;;;;;;;13.82;7.30;;;12.30;99.90;;;;;;4878021;29;20025;-74
2021/05/05 03:59:51;;;;;;;14.35;8.02;;;12.30;99.90;;;;;;4878284;29;20025;-74
2021/05/05 04:02:17;;;;;;;15.60;7.50;;;12.30;99.90;;;;;;4878141;29;20029;-74
2021/05/05 04:04:42;;;;;;;11.55;8.02;;;12.20;99.90;;;;;;4878124;29;20060;-74
2021/05/05 04:07:08;;;;;;;11.07;7.78;;;12.20;99.90;;;;;;4878087;29;20025;-74
2021/05/05 04:09:35;;;;;;;13.35;8.30;;;12.20;99.90;;;;;;4877793;29;20047;-74
2021/05/05 04:12:04;;;;;;;7.80;6.50;;;12.30;99.90;;;;;;4877827;29;20033;-74
2021/05/05 04:14:30;;;;;;;13.73;8.20;;;12.30;99.90;;;;;;4877894;29;20029;-74
2021/05/05 04:16:56;;;;;;;14.32;8.35;;;12.30;99.90;;;;;;4878029;29;20021;-74
2021/05/05 04:19:22;;;;;;;14.90;8.10;;;12.30;99.90;;;;;;4878025;29;20378;-74
2021/05/05 04:21:49;;;;;;;11.15;7.72;;;12.40;99.90;;;;;;4894508;23;20060;-74
2021/05/05 04:24:15;;;;;;;17.38;8.57;;;12.40;99.90;;;;;;4896230;29;20111;-74
2021/05/05 04:26:41;;;;;;;10.30;7.65;;;12.30;99.90;;;;;;4896433;29;20103;-74
2021/05/05 04:29:07;;;;;;;14.13;8.10;;;12.40;99.90;;;;;;4896350;29;20029;-74
2021/05/05 04:31:32;;;;;;;15.55;8.32;;;12.30;99.90;;;;;;4896479;29;20029;-74
2021/05/05 04:33:58;;;;;;;14.00;7.45;;;12.30;99.90;;;;;;4896444;29;20088;-74
2021/05/05 04:36:24;;;;;;;13.63;7.40;;;12.20;99.90;;;;;;4896473;29;20305;-74
2021/05/05 04:38:50;;;;;;;12.50;8.20;;;12.20;99.90;;;;;;4896473;29;20489;-74
2021/05/05 04:41:16;;;;;;;10.60;7.85;;;12.30;99.90;;;;;;4896100;29;20036;-74
2021/05/05 04:43:41;;;;;;;11.27;7.30;;;12.30;99.90;;;;;;4896373;29;20059;-74
2021/05/05 04:46:07;;;;;;;15.57;8.38;;;12.20;99.90;;;;;;4879364;29;20115;-74
2021/05/05 04:48:34;;;;;;;14.32;8.30;;;12.20;99.90;;;;;;4896424;29;20084;-74
2021/05/05 04:51:00;;;;;;;12.43;8.30;;;12.20;99.90;;;;;;4896198;29;20044;-74
2021/05/05 04:53:26;;;;;;;12.73;8.85;;;12.30;99.90;;;;;;4902418;29;20021;-74
2021/05/05 04:55:52;;;;;;;14.00;8.25;;;12.20;99.90;;;;;;4911301;29;20040;-74
2021/05/05 04:58:19;;;;;;;13.07;8.27;;;12.30;99.90;;;;;;4901841;29;20389;-74
2021/05/05 05:00:44;;;;;;;13.75;8.40;;;12.30;99.90;;;;;;4896287;29;20032;-74
2021/05/05 05:03:10;;;;;;;9.80;7.65;;;12.30;99.90;;;;;;4896065;29;20496;-74
2021/05/05 05:05:36;;;;;;;12.77;7.57;;;12.40;99.90;;;;;;4896163;29;20108;-74
2021/05/05 05:08:02;;;;;;;11.10;7.32;;;12.40;99.90;;;;;;4879325;29;20078;-74
2021/05/05 05:10:28;;;;;;;16.92;8.68;;;12.40;99.90;;;;;;4896210;29;20033;-74
2021/05/05 05:12:55;;;;;;;12.15;7.63;;;12.40;99.90;;;;;;4896055;29;20104;-74
2021/05/05 05:15:21;;;;;;;13.93;8.43;;;12.50;99.90;;;;;;4879051;29;20033;-74
2021/05/05 05:17:47;;;;;;;11.90;7.85;;;12.60;99.90;;;;;;4896033;29;20027;-74
2021/05/05 05:20:13;;;;;;;14.38;8.75;;;12.60;99.90;;;;;;4895469;29;20100;-74
2021/05/05 05:22:39;;;;;;;14.68;8.55;;;12.70;99.90;;;;;;4896696;29;20044;-74
2021/05/05 05:25:10;;;;;;;12.95;8.27;;;12.70;99.90;;;;;;4897612;29;20029;-74
2021/05/05 05:27:37;;;;;;;11.47;8.10;;;12.80;99.90;;;;;;4897733;29;20484;-74
2021/05/05 05:30:04;;;;;;;11.13;7.90;;;12.80;99.90;;;;;;4897863;29;20029;-74
2021/05/05 05:32:29;;;;;;;12.65;9.02;;;12.80;99.90;;;;;;4897748;29;20404;-74
2021/05/05 05:34:55;;;;;;;13.77;9.60;;;12.90;99.90;;;;;;4897860;29;20028;-74
2021/05/05 05:37:21;;;;;;;12.48;8.38;;;12.90;99.90;;;;;;4882199;29;20032;-74
2021/05/05 05:39:46;;;;;;;13.73;8.15;;;13.00;99.90;;;;;;4899283;29;20112;-74
2021/05/05 05:42:12;;;;;;;9.93;7.57;;;13.10;99.90;;;;;;4899254;29;20056;-74
2021/05/05 05:44:38;;;;;;;14.60;8.07;;;13.10;99.90;;;;;;4882190;29;20523;-74
2021/05/05 05:47:04;;;;;;;13.77;8.65;;;13.10;99.90;;;;;;4899191;29;20079;-74
2021/05/05 05:49:29;;;;;;;12.70;7.82;;;13.20;99.90;;;;;;4899099;29;20056;-74
2021/05/05 05:51:56;;;;;;;11.73;7.95;;;13.30;99.90;;;;;;4882076;29;20071;-74
2021/05/05 05:54:22;;;;;;;12.40;8.07;;;13.40;99.90;;;;;;4898959;29;20449;-74
2021/05/05 05:56:47;;;;;;;9.55;7.03;;;13.40;99.90;;;;;;4898876;29;20099;-74
2021/05/05 05:59:13;;;;;;;9.80;7.00;;;13.50;99.90;;;;;;4898730;29;20116;-74
2021/05/05 06:01:39;;;;;;;8.35;6.25;;;13.50;99.90;;;;;;4882067;29;20107;-74
2021/05/05 06:04:05;;;;;;;9.73;6.57;;;13.60;99.90;;;;;;4881930;29;20087;-74
2021/05/05 06:06:30;;;;;;;13.27;6.80;;;13.70;99.90;;;;;;4898717;29;20432;-74
2021/05/05 06:08:56;;;;;;;9.05;5.90;;;13.70;99.90;;;;;;4898825;29;20033;-75
2021/05/05 06:11:22;;;;;;;9.57;5.28;;;13.80;99.90;;;;;;4881615;29;20032;-74
2021/05/05 06:13:48;;;;;;;5.97;5.28;;;13.90;99.90;;;;;;4881709;29;20032;-74
2021/05/05 06:16:14;;;;;;;16.00;5.72;;;14.00;99.90;;;;;;4881771;29;20040;-74
2021/05/05 06:18:39;;;;;;;6.20;5.47;;;14.00;99.90;;;;;;4898587;29;20492;-74
2021/05/05 06:21:06;;;;;;;8.48;5.90;;;14.10;99.90;;;;;;4898424;29;20181;-74
2021/05/05 06:23:32;;;;;;;7.88;5.45;;;14.20;99.90;;;;;;4881646;29;20395;-74
2021/05/05 06:25:58;;;;;;;9.85;6.03;;;14.20;99.90;;;;;;4898220;29;20040;-74
2021/05/05 06:28:24;;;;;;;13.77;5.10;;;14.30;99.90;;;;;;4898455;29;20028;-74
2021/05/05 06:30:50;;;;;;;7.13;4.15;;;14.40;99.90;;;;;;4898183;29;20137;-73
2021/05/05 06:33:15;;;;;;;9.88;4.57;;;14.50;99.90;;;;;;4898053;29;20028;-74
2021/05/05 06:35:41;;;;;;;11.43;4.55;;;14.60;99.90;;;;;;4898166;29;20033;-74
2021/05/05 06:38:07;;;;;;;4.47;4.07;;;14.70;99.90;;;;;;4898341;29;20036;-74
2021/05/05 06:40:33;;;;;;;5.82;3.97;;;14.80;99.90;;;;;;4881491;29;20466;-74
2021/05/05 06:42:58;;;;;;;5.35;3.75;;;14.80;99.90;;;;;;4898030;29;20024;-74
2021/05/05 06:45:24;;;;;;;3.92;3.63;;;14.90;99.90;;;;;;4898135;29;20036;-74
2021/05/05 06:47:50;;;;;;;7.80;3.72;;;15.00;99.90;;;;;;4883305;29;20088;-74
2021/05/05 06:50:16;;;;;;;4.72;4.30;;;15.10;99.90;;;;;;4898032;29;20033;-74
2021/05/05 06:52:41;;;;;;;10.27;7.40;;;15.10;99.90;;;;;;4897873;29;20025;-75
2021/05/05 06:55:09;;;;;;;5.95;5.15;;;15.20;99.90;;;;;;4896807;29;20050;-74
2021/05/05 06:57:36;;;;;;;10.90;4.68;;;15.20;99.90;;;;;;4904853;29;20108;-74
2021/05/05 07:00:04;;;;;;;6.75;5.10;;;15.30;99.90;;;;;;4910805;29;20059;-80
2021/05/05 07:02:30;;;;;;;6.78;5.28;;;15.30;99.90;;;;;;4916403;29;20460;-80
2021/05/05 07:04:55;;;;;;;9.00;4.18;;;15.40;99.90;;;;;;4916476;29;20066;-80
2021/05/05 07:07:21;;;;;;;12.60;4.85;;;15.40;99.90;;;;;;4899701;29;20040;-80
2021/05/05 07:09:48;;;;;;;6.47;4.45;;;15.40;99.90;;;;;;4916609;29;20028;-80
2021/05/05 07:12:14;;;;;;;5.63;5.10;;;15.40;99.90;;;;;;4916359;29;20665;-80
2021/05/05 07:14:40;;;;;;;4.90;4.40;;;15.50;99.90;;;;;;4916485;29;20100;-80
2021/05/05 07:17:05;;;;;;;4.35;4.00;;;15.50;99.90;;;;;;4916759;29;20107;-80
2021/05/05 07:19:31;;;;;;;6.82;3.95;;;15.60;99.90;;;;;;4916523;29;20028;-80
2021/05/05 07:21:57;;;;;;;5.28;4.78;;;15.60;99.90;;;;;;4916122;29;20055;-80
2021/05/05 07:24:22;;;;;;;4.95;4.38;;;15.70;99.90;;;;;;4916213;29;20028;-80
2021/05/05 07:26:48;;;;;;;5.85;4.85;;;15.70;99.90;;;;;;4914909;29;20032;-80
2021/05/05 07:29:14;;;;;;;8.38;5.18;;;15.70;99.90;;;;;;4896103;29;20032;-80
2021/05/05 07:31:40;;;;;;;7.45;5.38;;;15.70;99.90;;;;;;4897917;29;20036;-80
2021/05/05 07:34:06;;;;;;;5.90;4.95;;;15.80;99.90;;;;;;4898657;29;20445;-79
2021/05/05 07:36:31;;;;;;;7.72;5.15;;;15.80;99.90;;;;;;4897222;29;20070;-79
2021/05/05 07:49:22;;;;;;;7.45;4.35;;;16.20;99.90;;;;;;4892821;29;20636;-74
2021/05/05 07:51:48;;;;;;;4.60;4.18;;;16.20;99.90;;;;;;4892374;29;20039;-75
2021/05/05 07:54:15;;;;;;;5.88;4.32;;;16.30;99.90;;;;;;4893144;29;20378;-75
2021/05/05 07:56:41;;;;;;;7.53;4.47;;;16.40;99.90;;;;;;4892328;29;20036;-74
2021/05/05 07:59:07;;;;;;;5.68;4.10;;;16.40;99.90;;;;;;4892374;29;20028;-74
2021/05/05 08:01:34;;;;;;;7.63;4.72;;;16.50;99.90;;;;;;4893005;29;20528;-78
2021/05/05 08:04:01;;;;;;;4.18;3.78;;;16.50;99.90;;;;;;4892367;29;20040;-78
2021/05/05 08:06:27;;;;;;;3.90;3.53;;;16.50;99.90;;;;;;4892522;29;20025;-78
2021/05/05 08:08:57;;;;;;;10.90;4.00;;;16.50;99.90;;;;;;4892667;29;20111;-78
2021/05/05 08:11:24;;;;;;;4.30;3.90;;;16.50;99.90;;;;;;4892064;29;20164;-78
2021/05/05 08:13:50;;;;;;;5.63;3.67;;;16.60;99.90;;;;;;4892751;29;20448;-78
2021/05/05 08:16:17;;;;;;;6.35;3.63;;;16.70;99.90;;;;;;4892424;29;20024;-78
2021/05/05 08:18:43;;;;;;;5.78;3.10;;;16.70;99.80;;;;;;4892117;29;20028;-77
2021/05/05 08:21:10;;;;;;;4.20;3.58;;;16.70;99.30;;;;;;4892513;29;20052;-78
2021/05/05 08:23:36;;;;;;;5.22;2.92;;;16.60;99.30;;;;;;4892295;29;20036;-77
2021/05/05 08:26:04;;;;;;;11.13;3.88;;;16.60;99.70;;;;;;4891756;29;20037;-77
2021/05/05 08:28:30;;;;;;;5.32;3.67;;;16.70;98.70;;;;;;4892777;29;20033;-78
2021/05/05 08:30:56;;;;;;;5.18;3.00;;;16.70;98.60;;;;;;4891916;29;20515;-77
2021/05/05 08:33:22;;;;;;;4.63;3.50;;;16.80;99.00;;;;;;4892120;29;20029;-77
2021/05/05 08:35:47;;;;;;;3.95;3.60;;;16.80;98.30;;;;;;4892325;29;20027;-78
2021/05/05 08:38:14;;;;;;;7.25;3.30;;;16.80;98.20;;;;;;4891706;29;20035;-78
2021/05/05 08:40:40;;;;;;;3.17;2.88;;;16.80;99.00;;;;;;4892742;29;20050;-78
2021/05/05 08:43:06;;;;;;;3.65;2.55;;;16.90;99.40;;;;;;4891846;29;20033;-77
2021/05/05 08:45:32;;;;;;;4.90;3.45;;;16.90;98.60;;;;;;4891692;29;20029;-77
2021/05/05 08:48:01;;;;;;;4.65;2.67;;;16.90;97.80;;;;;;4892727;29;20111;-78
2021/05/05 08:50:29;;;;;;;3.42;2.20;;;17.00;97.70;;;;;;4891690;29;20033;-79
2021/05/05 08:52:56;;;;;;;2.20;2.10;;;17.10;97.10;;;;;;4891746;29;20076;-79
2021/05/05 08:55:24;;;;;;;11.55;2.30;;;17.10;95.10;;;;;;4893530;29;20039;-79
2021/05/05 08:57:50;;;;;;;6.40;2.00;;;17.20;95.90;;;;;;4895381;29;20080;-78
2021/05/05 09:00:23;;;;;;;2.17;2.03;;;17.20;95.20;;;;;;4895788;29;20468;-78
2021/05/05 09:02:48;;;;;;;3.22;1.60;;;17.20;95.10;;;;;;4896355;29;20036;-79
2021/05/05 09:05:16;;;;;;;2.30;1.88;;;17.30;94.90;;;;;;4895272;29;20032;-79
2021/05/05 09:07:43;;;;;;;3.10;1.95;;;17.50;95.10;;;;;;4895182;29;20404;-78
2021/05/05 09:10:09;;;;;;;2.50;2.00;;;17.60;94.90;;;;;;4896193;29;20032;-79
2021/05/05 09:12:37;;;;;;;3.33;1.80;;;17.60;94.60;;;;;;4895088;29;20029;-78
2021/05/05 09:15:15;;;;;;;2.33;2.10;;;17.60;94.00;;;;;;4895361;29;20025;-79
2021/05/05 09:17:45;;;;;;;2.00;1.88;;;17.70;94.90;;;;;;4895387;29;20020;-78
2021/05/05 09:20:12;;;;;;;3.20;2.38;;;17.80;95.30;;;;;;4896066;29;20060;-79
2021/05/05 09:22:53;;;;;;;4.55;2.08;;;18.00;96.20;;;;;;4894898;29;20048;-79
2021/05/05 09:25:38;;;;;;;3.25;1.98;;;18.10;94.80;;;;;;4895245;29;20571;-79
2021/05/05 09:28:21;;;;;;;3.95;2.10;;;18.20;93.60;;;;;;4895957;29;20064;-78
2021/05/05 09:30:51;;;;;;;6.75;2.42;;;18.20;93.50;;;;;;4895689;29;20033;-78
2021/05/05 09:33:33;;;;;;;6.00;2.30;;;18.20;94.00;;;;;;4895604;29;20028;-78
2021/05/05 09:36:03;;;;;;;3.97;2.97;;;18.30;92.90;;;;;;4895035;29;20073;-78
2021/05/05 09:38:50;;;;;;;3.65;3.35;;;18.20;92.60;;;;;;4895007;29;20584;-78
2021/05/05 09:41:30;;;;;;;4.68;2.88;;;18.20;93.10;;;;;;4888597;29;20044;-79
2021/05/05 09:44:02;;;;;;;3.08;2.88;;;18.40;93.80;;;;;;4895527;29;20028;-78
2021/05/05 09:46:45;;;;;;;10.23;3.05;;;18.40;94.00;;;;;;4895233;29;20023;-77
2021/05/05 09:49:27;;;;;;;3.25;2.58;;;18.40;93.10;;;;;;4895624;29;20118;-77
2021/05/05 09:51:57;;;;;;;;;;;18.40;94.20;;;;;;4895725;29;20100;-78
2021/05/05 09:54:29;;;;;;;6.45;2.35;;;18.60;94.40;;;;;;4893835;29;20422;-78
2021/05/05 09:57:14;;;;;;;5.15;2.53;;;18.60;94.20;;;;;;4894421;29;20048;-78
2021/05/05 09:59:57;;;;;;;6.30;2.63;;;18.70;93.80;;;;;;4895278;29;20028;-78
2021/05/05 10:02:24;;;;;;;3.90;2.60;;;18.80;93.00;;;;;;4895529;29;20043;-78
2021/05/05 10:05:14;;;;;;;5.63;2.15;;;18.90;92.60;;;;;;4894490;29;20029;-73
2021/05/05 10:08:09;;;;;;;3.08;2.20;;;18.80;91.20;;;;;;4893435;29;20033;-74
2021/05/05 10:10:40;;;;;;;2.58;2.05;;;18.70;92.40;;;;;;4890812;29;20041;-73
2021/05/05 10:13:07;;;;;;;5.22;1.92;;;18.70;91.80;;;;;;4876572;29;20032;-73
2021/05/05 10:15:43;;;;;;;2.70;2.50;;;18.50;91.70;;;;;;4897082;29;20032;-73
2021/05/05 10:18:13;;;;;;;5.43;1.75;;;18.40;91.40;;;;;;4897030;29;20031;-73
2021/05/05 10:20:43;;;;;;;4.80;2.10;;;18.40;92.10;;;;;;4896789;29;20032;-74
2021/05/05 10:23:09;;;;;;;2.58;2.40;;;18.40;91.70;;;;;;4896762;29;20028;-73
2021/05/05 10:25:40;;;;;;;2.53;2.30;;;18.40;92.20;;;;;;4898227;29;20441;-73
2021/05/05 10:28:06;;;;;;;2.57;2.23;;;18.40;91.70;;;;;;4898626;29;20025;-74
2021/05/05 10:30:34;;;;;;;7.13;2.50;;;18.40;92.10;;;;;;4881735;29;20293;-73
2021/05/05 10:33:00;;;;;;;3.92;2.80;;;18.50;92.70;;;;;;4896705;29;20036;-74
2021/05/05 10:35:26;;;;;;;2.72;2.53;;;18.40;91.70;;;;;;4897287;29;20097;-73
2021/05/05 10:37:59;;;;;;;3.35;2.53;;;18.40;91.40;;;;;;4896903;29;20039;-73
2021/05/05 10:40:31;;;;;;;4.53;2.35;;;18.50;92.00;;;;;;4897473;29;20515;-74
2021/05/05 10:43:05;;;;;;;2.97;2.40;;;18.50;91.80;;;;;;4880513;29;20038;-74
2021/05/05 10:45:38;;;;;;;5.13;2.35;;;18.60;91.40;;;;;;4897387;29;20648;-74
2021/05/05 10:48:14;;;;;;;6.07;2.70;;;18.70;91.40;;;;;;4897852;29;20478;-74
2021/05/05 10:50:52;;;;;;;2.72;2.20;;;18.90;91.50;;;;;;4898099;29;20504;-73
2021/05/05 10:53:22;;;;;;;2.35;2.05;;;19.00;91.10;;;;;;4898057;29;20025;-74
2021/05/05 10:55:55;;;;;;;4.45;2.60;;;19.10;91.50;;;;;;4880965;29;20029;-74
2021/05/05 10:58:24;;;;;;;2.50;2.30;;;19.30;91.50;;;;;;4897774;29;20080;-74
2021/05/05 11:00:52;;;;;;;2.25;2.03;;;19.30;91.60;;;;;;4897814;29;20508;-74
2021/05/05 11:03:49;;;;;;;3.25;2.33;;;19.40;91.60;;;;;;4880964;29;20028;-73
2021/05/05 11:06:30;;;;;;;5.53;3.25;;;19.30;90.00;;;;;;4897814;29;20032;-73
2021/05/05 11:08:58;;;;;;;2.85;2.30;;;19.40;91.10;;;;;;4897730;29;20040;-74
2021/05/05 11:11:35;;;;;;;5.35;2.30;;;19.50;90.40;;;;;;4880706;29;20029;-73
2021/05/05 11:14:00;;;;;;;2.33;2.22;;;19.70;90.50;;;;;;4897386;29;20031;-74
2021/05/05 11:16:52;;;;;;;5.25;2.90;;;19.70;90.40;;;;;;4897737;29;20029;-74
2021/05/05 11:19:47;;;;;;;3.55;3.25;;;19.60;89.80;;;;;;4879641;29;20572;-73
2021/05/05 11:22:19;;;;;;;9.45;3.67;;;19.70;90.10;;;;;;4889193;29;20083;-74
2021/05/05 11:24:46;;;;;;;4.22;3.17;;;19.70;90.20;;;;;;4897388;29;20024;-73
2021/05/05 11:27:13;;;;;;;8.43;3.95;;;19.90;90.20;;;;;;4897485;29;20115;-73
2021/05/05 11:29:50;;;;;;;4.93;3.40;;;20.00;90.40;;;;;;4897484;29;20028;-73
2021/05/05 11:32:21;;;;;;;4.00;3.70;;;20.00;89.20;;;;;;4880348;29;20033;-73
2021/05/05 11:34:47;;;;;;;4.07;3.70;;;20.10;89.80;;;;;;4897283;29;20114;-74
2021/05/05 11:37:19;;;;;;;8.23;3.45;;;20.20;90.40;;;;;;4897306;29;20032;-74
2021/05/05 11:39:51;;;;;;;4.97;3.38;;;20.30;90.30;;;;;;4897204;29;20350;-74
2021/05/05 11:42:20;;;;;;;9.27;4.10;;;20.40;88.40;;;;;;4897189;29;20029;-74
2021/05/05 11:44:49;;;;;;;6.70;4.10;;;20.30;89.00;;;;;;4897111;29;20032;-74
2021/05/05 11:47:17;;;;;;;4.13;3.35;;;20.30;88.30;;;;;;4889553;29;20029;-74
2021/05/05 11:49:53;;;;;;;5.90;3.85;;;20.40;90.10;;;;;;4897101;29;20028;-74
2021/05/05 11:52:22;;;;;;;6.30;3.47;;;20.40;88.60;;;;;;4873253;29;20092;-73
2021/05/05 11:54:49;;;;;;;3.80;3.50;;;20.50;88.70;;;;;;4880173;29;20035;-74
2021/05/05 11:57:17;;;;;;;5.53;4.03;;;20.70;88.80;;;;;;4896610;29;20028;-74
2021/05/05 11:59:43;;;;;;;5.97;3.95;;;20.80;85.40;;;;;;4895645;29;20025;-73
2021/05/05 12:02:09;;;;;;;4.93;3.28;;;20.60;86.20;;;;;;4897098;29;20417;-73
2021/05/05 12:04:42;;;;;;;7.07;3.72;;;20.60;86.90;;;;;;4879458;29;20100;-74
2021/05/05 12:07:10;;;;;;;4.20;3.40;;;20.70;86.60;;;;;;4896608;29;20048;-74
2021/05/05 12:09:40;;;;;;;3.90;3.55;;;20.90;88.30;;;;;;4896516;29;20063;-73
2021/05/05 12:12:16;;;;;;;3.00;2.80;;;21.10;86.10;;;;;;4896630;29;20028;-74
2021/05/05 12:14:45;;;;;;;4.63;3.30;;;21.10;83.40;;;;;;4896517;29;20092;-74
2021/05/05 12:17:30;;;;;;;4.47;3.53;;;21.50;85.80;;;;;;4896556;29;20021;-74
2021/05/05 12:19:59;;;;;;;4.25;3.17;;;21.50;80.50;;;;;;4896511;29;20056;-74
2021/05/05 12:22:26;;;;;;;6.85;3.42;;;21.60;82.00;;;;;;4896412;29;20080;-73
2021/05/05 12:25:14;;;;;;;5.72;2.78;;;21.60;80.90;;;;;;4879787;29;20033;-74
2021/05/05 12:28:10;;;;;;;4.13;3.60;;;21.50;81.30;;;;;;4896546;29;20033;-73
2021/05/05 12:30:39;;;;;;;3.78;3.47;;;21.20;81.00;;;;;;4895877;29;20504;-74
2021/05/05 12:33:05;;;;;;;3.50;3.25;;;21.20;81.20;;;;;;4896310;29;20043;-73
2021/05/05 12:35:33;;;;;;;4.20;2.97;;;21.30;82.10;;;;;;4896214;29;20013;-73
2021/05/05 12:37:59;;;;;;;3.63;2.55;;;21.30;82.20;;;;;;4881938;29;20027;-73
2021/05/05 12:40:27;;;;;;;2.22;2.03;;;21.50;81.20;;;;;;4896221;29;20016;-74
2021/05/05 12:42:53;;;;;;;4.55;2.38;;;21.50;79.30;;;;;;4896301;29;20037;-73
2021/05/05 12:45:21;;;;;;;3.70;3.22;;;21.70;79.20;;;;;;4896223;29;20035;-73
2021/05/05 12:47:49;;;;;;;3.72;3.17;;;21.80;77.60;;;;;;4896420;29;20055;-73
2021/05/05 12:50:16;;;;;;;3.88;3.22;;;21.70;76.90;;;;;;4896204;29;20076;-73
2021/05/05 12:52:42;;;;;;;5.15;3.17;;;21.60;79.00;;;;;;4896173;29;20024;-73
2021/05/05 12:55:29;;;;;;;2.83;2.40;;;21.60;78.10;;;;;;4896210;29;20057;-73
2021/05/05 12:58:16;;;;;;;3.70;3.15;;;21.30;78.20;;;;;;4896231;29;20080;-73